Time;durP1;ratioP1;P1;durP2;ratioP2;P2;SDS_P1;SDS_P2;PMS_P1;PMS_P2;Temp;Humidity;BMP_temperature;BMP_pressure;BME280_temperature;BME280_humidity;BME280_pressure;Samples;Min_cycle;Max_cycle;Signal;HPM_P1;HPM_P2
2022/04/05 00:02:10;;;;;;;0.00;0.00;;;8.70;71.60;;;;;;4150547;28;20112;-68
2022/04/05 00:04:35;;;;;;;0.00;0.00;;;8.80;71.50;;;;;;4149633;28;20054;-70
2022/04/05 00:06:57;;;;;;;0.00;0.00;;;8.70;71.40;;;;;;4163864;28;20455;-68
2022/04/05 00:09:19;;;;;;;0.00;0.00;;;8.70;71.00;;;;;;4150567;28;20053;-67
2022/04/05 00:11:41;;;;;;;0.00;0.00;;;8.70;70.70;;;;;;4150337;28;20396;-71
2022/04/05 00:14:04;;;;;;;0.00;0.00;;;8.60;70.80;;;;;;4164852;28;20049;-73
2022/04/05 00:16:39;;;;;;;0.00;0.00;;;8.60;71.20;;;;;;4150492;28;20112;-70
2022/04/05 00:19:06;;;;;;;0.00;0.00;;;8.60;71.00;;;;;;4164595;28;20053;-70
2022/04/05 00:21:48;;;;;;;0.00;0.00;;;8.70;70.80;;;;;;4164218;28;20391;-67
2022/04/05 00:24:10;;;;;;;0.00;0.00;;;8.70;71.30;;;;;;4164925;28;20474;-71
2022/04/05 00:26:44;;;;;;;0.00;0.00;;;8.70;70.70;;;;;;4164371;28;20057;-68
2022/04/05 00:29:07;;;;;;;0.00;0.00;;;8.70;70.50;;;;;;4150546;28;20181;-71
2022/04/05 00:31:32;;;;;;;0.00;0.00;;;8.80;70.50;;;;;;4150353;28;20116;-69
2022/04/05 00:33:56;;;;;;;0.00;0.00;;;8.80;70.50;;;;;;4136853;28;20057;-68
2022/04/05 00:36:27;;;;;;;0.00;0.00;;;8.80;70.60;;;;;;4151929;28;20128;-70
2022/04/05 00:39:07;;;;;;;0.00;0.00;;;8.80;70.80;;;;;;4139200;28;20065;-71
2022/04/05 00:41:34;;;;;;;0.00;0.00;;;8.80;70.70;;;;;;4164709;28;20072;-69
2022/04/05 00:43:56;;;;;;;0.00;0.00;;;8.70;70.60;;;;;;4164550;28;20099;-70
2022/04/05 00:46:21;;;;;;;0.00;0.00;;;8.70;70.50;;;;;;4164727;28;20061;-69
2022/04/05 00:48:59;;;;;;;0.00;0.00;;;8.60;70.50;;;;;;4151228;28;20076;-69
2022/04/05 00:51:23;;;;;;;0.00;0.00;;;8.70;70.40;;;;;;4150090;28;20042;-67
2022/04/05 00:54:04;;;;;;;0.00;0.00;;;8.70;70.50;;;;;;4137637;28;20046;-69
2022/04/05 00:56:35;;;;;;;0.00;0.00;;;8.60;70.50;;;;;;4163659;28;20055;-70
2022/04/05 00:59:21;;;;;;;0.00;0.00;;;8.70;70.50;;;;;;4151750;28;20081;-71
2022/04/05 01:02:02;;;;;;;0.00;0.00;;;8.70;70.80;;;;;;4164638;28;20046;-69
2022/04/05 01:04:43;;;;;;;0.00;0.00;;;8.70;70.90;;;;;;4151967;28;20111;-67
2022/04/05 01:07:18;;;;;;;0.00;0.00;;;8.70;70.80;;;;;;4164077;28;20061;-71
2022/04/05 01:09:47;;;;;;;0.00;0.00;;;8.70;70.90;;;;;;4151061;28;20053;-71
2022/04/05 01:12:22;;;;;;;0.00;0.00;;;8.70;70.80;;;;;;4151369;28;20049;-71
2022/04/05 01:14:55;;;;;;;0.00;0.00;;;8.70;70.90;;;;;;4151349;28;20046;-72
2022/04/05 01:17:31;;;;;;;0.00;0.00;;;8.70;70.70;;;;;;4154973;28;20451;-69
2022/04/05 01:20:05;;;;;;;0.00;0.00;;;8.60;70.60;;;;;;4153257;28;20425;-67
2022/04/05 01:22:28;;;;;;;0.00;0.00;;;8.60;71.20;;;;;;4153319;28;20046;-72
2022/04/05 01:25:00;;;;;;;0.00;0.00;;;8.60;70.60;;;;;;4153929;28;20079;-71
2022/04/05 01:27:32;;;;;;;0.00;0.00;;;8.60;70.40;;;;;;4167109;28;20472;-73
2022/04/05 01:30:00;;;;;;;0.00;0.00;;;8.70;70.30;;;;;;4153294;28;20128;-70
2022/04/05 01:32:22;;;;;;;0.00;0.00;;;8.70;70.30;;;;;;4152797;28;20045;-68
2022/04/05 01:34:47;;;;;;;0.00;0.00;;;8.70;70.20;;;;;;4138716;28;20056;-69
2022/04/05 01:37:12;;;;;;;0.00;0.00;;;8.70;70.30;;;;;;4125580;28;20054;-71
2022/04/05 01:39:36;;;;;;;0.00;0.00;;;8.60;70.40;;;;;;4152710;28;20050;-70
2022/04/05 01:42:10;;;;;;;0.00;0.00;;;8.70;70.40;;;;;;4139007;28;20054;-69
2022/04/05 01:44:34;;;;;;;0.00;0.00;;;8.60;70.30;;;;;;4152620;28;20116;-69
2022/04/05 01:47:01;;;;;;;0.00;0.00;;;8.70;70.40;;;;;;4152219;28;20460;-69
2022/04/05 01:49:23;;;;;;;0.00;0.00;;;8.70;70.30;;;;;;4152443;28;20045;-70
2022/04/05 01:51:49;;;;;;;0.00;0.00;;;8.70;70.30;;;;;;4152660;28;20450;-72
2022/04/05 01:54:14;;;;;;;0.00;0.00;;;8.70;70.40;;;;;;4138928;28;20116;-69
2022/04/05 01:56:48;;;;;;;0.00;0.00;;;8.70;70.50;;;;;;4136102;28;20074;-69
2022/04/05 01:59:12;;;;;;;0.00;0.00;;;8.70;70.50;;;;;;4135944;28;20041;-70
2022/04/05 02:01:34;;;;;;;0.00;0.00;;;8.70;70.60;;;;;;4163631;28;20476;-69
2022/04/05 02:03:56;;;;;;;0.00;0.00;;;8.70;70.70;;;;;;4136387;28;20050;-71
2022/04/05 02:06:23;;;;;;;0.00;0.00;;;8.70;70.70;;;;;;4136463;28;20452;-71
2022/04/05 02:08:45;;;;;;;0.00;0.00;;;8.60;70.90;;;;;;4149182;28;20054;-69
2022/04/05 02:11:11;;;;;;;0.00;0.00;;;8.60;71.10;;;;;;4136292;28;20054;-70
2022/04/05 02:13:36;;;;;;;0.00;0.00;;;8.60;71.20;;;;;;4146042;28;20096;-70
2022/04/05 02:16:03;;;;;;;0.00;0.00;;;8.70;71.20;;;;;;4149430;28;20084;-68
2022/04/05 02:18:29;;;;;;;0.00;0.00;;;8.70;71.30;;;;;;4149422;28;20046;-70
2022/04/05 02:20:54;;;;;;;0.00;0.00;;;8.60;71.40;;;;;;4135631;28;20062;-68
2022/04/05 02:23:19;;;;;;;0.00;0.00;;;8.70;71.60;;;;;;4163150;28;20049;-68
2022/04/05 02:25:52;;;;;;;0.00;0.00;;;8.70;71.70;;;;;;4135681;28;20077;-71
2022/04/05 02:28:18;;;;;;;0.00;0.00;;;8.70;71.70;;;;;;4148678;28;20056;-69
2022/04/05 02:30:46;;;;;;;0.00;0.00;;;8.70;71.60;;;;;;4135285;28;20053;-71
2022/04/05 02:33:14;;;;;;;0.00;0.00;;;8.70;71.60;;;;;;4135595;28;20473;-69
2022/04/05 02:35:43;;;;;;;0.00;0.00;;;8.70;71.60;;;;;;4135550;28;20464;-71
2022/04/05 02:38:09;;;;;;;0.00;0.00;;;8.70;71.60;;;;;;4135560;28;20105;-69
2022/04/05 02:40:37;;;;;;;0.00;0.00;;;8.50;71.40;;;;;;4135535;28;20046;-68
2022/04/05 02:43:04;;;;;;;0.00;0.00;;;8.60;71.40;;;;;;4148802;28;20121;-71
2022/04/05 02:45:27;;;;;;;0.00;0.00;;;8.60;71.30;;;;;;4149148;28;20070;-71
2022/04/05 02:47:49;;;;;;;0.00;0.00;;;8.60;71.20;;;;;;4149096;28;20046;-69
2022/04/05 02:50:14;;;;;;;0.00;0.00;;;8.60;71.10;;;;;;4135476;28;20050;-69
2022/04/05 02:52:37;;;;;;;0.00;0.00;;;8.60;71.10;;;;;;4148905;28;20046;-71
2022/04/05 02:55:06;;;;;;;0.00;0.00;;;8.60;71.10;;;;;;4148446;28;20556;-69
2022/04/05 02:57:29;;;;;;;0.00;0.00;;;8.60;71.00;;;;;;4149233;28;20088;-71
2022/04/05 02:59:54;;;;;;;0.00;0.00;;;8.70;70.90;;;;;;4135284;28;20508;-71
2022/04/05 03:02:17;;;;;;;0.00;0.00;;;8.70;70.80;;;;;;4135123;28;20050;-70
2022/04/05 03:04:42;;;;;;;0.00;0.00;;;8.70;70.40;;;;;;4134921;28;20089;-69
2022/04/05 03:07:07;;;;;;;0.00;0.00;;;8.60;70.50;;;;;;4148876;28;20172;-69
2022/04/05 03:09:32;;;;;;;0.00;0.00;;;8.70;70.40;;;;;;4135050;28;20089;-69
2022/04/05 03:11:57;;;;;;;0.00;0.00;;;8.60;70.00;;;;;;4121648;28;20042;-70
2022/04/05 03:14:27;;;;;;;0.00;0.00;;;8.50;70.00;;;;;;4148556;28;20045;-70
2022/04/05 03:16:52;;;;;;;0.00;0.00;;;8.50;70.10;;;;;;4134568;28;20444;-69
2022/04/05 03:19:16;;;;;;;0.00;0.00;;;8.50;70.20;;;;;;4148446;28;20053;-72
2022/04/05 03:21:47;;;;;;;0.00;0.00;;;8.50;70.00;;;;;;4148611;28;20137;-70
2022/04/05 03:24:09;;;;;;;0.00;0.00;;;8.50;70.10;;;;;;4148488;28;20132;-69
2022/04/05 03:26:33;;;;;;;0.00;0.00;;;8.50;70.10;;;;;;4148488;28;20057;-67
2022/04/05 03:28:58;;;;;;;0.00;0.00;;;8.50;70.00;;;;;;4134325;28;20086;-69
2022/04/05 03:31:24;;;;;;;0.00;0.00;;;8.50;69.80;;;;;;4162327;28;20111;-68
2022/04/05 03:33:51;;;;;;;0.00;0.00;;;8.50;69.60;;;;;;4148470;28;20049;-70
2022/04/05 03:36:16;;;;;;;0.00;0.00;;;8.50;69.50;;;;;;4134714;28;20112;-70
2022/04/05 03:38:39;;;;;;;0.00;0.00;;;8.60;69.80;;;;;;4134345;28;20042;-69
2022/04/05 03:41:09;;;;;;;0.00;0.00;;;8.50;69.30;;;;;;4134011;28;20453;-71
2022/04/05 03:43:38;;;;;;;0.00;0.00;;;8.40;69.40;;;;;;4148104;28;20061;-70
2022/04/05 03:46:04;;;;;;;0.00;0.00;;;8.50;69.60;;;;;;4134426;28;20065;-69
2022/04/05 03:48:29;;;;;;;0.00;0.00;;;8.50;69.50;;;;;;4134317;28;20056;-69
2022/04/05 03:50:57;;;;;;;0.00;0.00;;;8.50;69.50;;;;;;4134624;28;20096;-70
2022/04/05 03:53:20;;;;;;;0.00;0.00;;;8.50;69.40;;;;;;4147847;28;20059;-69
2022/04/05 03:55:46;;;;;;;0.00;0.00;;;8.60;69.60;;;;;;4148144;28;20108;-71
2022/04/05 03:58:16;;;;;;;0.00;0.00;;;8.60;69.70;;;;;;4148024;28;20060;-70
2022/04/05 04:00:39;;;;;;;;;;;8.60;69.50;;;;;;4134721;28;20042;-69
2022/04/05 04:03:19;;;;;;;0.00;0.00;;;8.60;69.40;;;;;;4148345;28;20402;-69
2022/04/05 04:05:46;;;;;;;0.00;0.00;;;8.60;69.40;;;;;;4148189;28;20052;-69
2022/04/05 04:08:11;;;;;;;0.00;0.00;;;8.60;69.40;;;;;;4134540;28;20460;-68
2022/04/05 04:10:37;;;;;;;0.00;0.00;;;8.60;70.00;;;;;;4147964;28;20558;-69
2022/04/05 04:13:03;;;;;;;0.00;0.00;;;8.70;69.30;;;;;;4134072;28;20054;-72
2022/04/05 04:15:31;;;;;;;0.00;0.00;;;8.70;69.40;;;;;;4134412;28;20054;-72
2022/04/05 04:17:56;;;;;;;0.00;0.00;;;8.70;69.20;;;;;;4148004;28;20097;-72
2022/04/05 04:20:19;;;;;;;0.00;0.00;;;8.70;69.10;;;;;;4148024;28;20057;-68
2022/04/05 04:22:44;;;;;;;0.00;0.00;;;8.70;69.20;;;;;;4134075;28;20069;-70
2022/04/05 04:25:09;;;;;;;0.00;0.00;;;8.60;69.40;;;;;;4148111;28;20046;-70
2022/04/05 04:27:34;;;;;;;0.00;0.00;;;8.70;69.60;;;;;;4147864;28;20045;-70
2022/04/05 04:29:59;;;;;;;0.00;0.00;;;8.70;69.40;;;;;;4147914;28;20050;-70
2022/04/05 04:32:21;;;;;;;0.00;0.00;;;8.70;69.10;;;;;;4161604;28;20046;-68
2022/04/05 04:34:43;;;;;;;0.00;0.00;;;8.70;68.90;;;;;;4120369;28;20116;-70
2022/04/05 04:37:08;;;;;;;0.00;0.00;;;8.70;68.50;;;;;;4161766;28;20041;-70
2022/04/05 04:39:32;;;;;;;0.00;0.00;;;8.70;68.50;;;;;;4161578;28;20049;-69
2022/04/05 04:42:00;;;;;;;0.00;0.00;;;8.60;68.50;;;;;;4134341;28;20058;-70
2022/04/05 04:44:25;;;;;;;0.00;0.00;;;8.60;68.40;;;;;;4134240;28;20515;-69
2022/04/05 04:46:52;;;;;;;0.00;0.00;;;8.60;68.30;;;;;;4161061;28;20053;-70
2022/04/05 04:49:16;;;;;;;0.00;0.00;;;8.60;68.40;;;;;;4147821;28;20042;-70
2022/04/05 04:51:42;;;;;;;0.00;0.00;;;8.60;68.50;;;;;;4137257;28;20050;-69
2022/04/05 04:54:07;;;;;;;0.00;0.00;;;8.50;68.10;;;;;;4164874;28;20104;-69
2022/04/05 04:56:32;;;;;;;0.00;0.00;;;8.50;68.30;;;;;;4137205;28;20038;-69
2022/04/05 04:58:56;;;;;;;0.00;0.00;;;8.50;68.30;;;;;;4136981;28;20098;-70
2022/04/05 05:01:21;;;;;;;0.00;0.00;;;8.50;68.40;;;;;;4164821;28;20052;-69
2022/04/05 05:03:45;;;;;;;0.00;0.00;;;8.50;68.40;;;;;;4164759;28;20069;-69
2022/04/05 05:06:07;;;;;;;0.00;0.00;;;8.50;68.50;;;;;;4137403;28;20105;-70
2022/04/05 05:08:29;;;;;;;0.00;0.00;;;8.50;68.50;;;;;;4150861;28;20069;-71
2022/04/05 05:10:56;;;;;;;0.00;0.00;;;8.60;68.60;;;;;;4164029;28;20037;-72
2022/04/05 05:13:21;;;;;;;0.00;0.00;;;8.60;68.40;;;;;;4148516;28;20041;-71
2022/04/05 05:15:44;;;;;;;0.00;0.00;;;8.30;68.80;;;;;;4137139;28;20058;-70
2022/04/05 05:18:13;;;;;;;0.00;0.00;;;8.40;69.40;;;;;;4150522;28;20112;-70
2022/04/05 05:20:36;;;;;;;0.00;0.00;;;8.50;69.90;;;;;;4164321;28;20045;-70
2022/04/05 05:22:58;;;;;;;0.00;0.00;;;8.50;69.80;;;;;;4136818;28;20389;-72
2022/04/05 05:25:25;;;;;;;0.00;0.00;;;8.60;69.90;;;;;;4164400;28;20076;-70
2022/04/05 05:27:47;;;;;;;0.00;0.00;;;8.60;69.90;;;;;;4164290;28;20675;-69
2022/04/05 05:30:10;;;;;;;0.00;0.00;;;8.70;69.90;;;;;;4164287;28;20590;-69
2022/04/05 05:32:49;;;;;;;0.00;0.00;;;8.70;70.00;;;;;;4136704;28;20056;-71
2022/04/05 05:35:16;;;;;;;0.00;0.00;;;8.70;70.00;;;;;;4149863;28;20056;-71
2022/04/05 05:37:43;;;;;;;0.00;0.00;;;8.70;69.60;;;;;;4136843;28;20469;-72
2022/04/05 05:40:06;;;;;;;0.00;0.00;;;8.70;69.50;;;;;;4163965;28;20056;-69
2022/04/05 05:42:28;;;;;;;0.00;0.00;;;8.60;69.60;;;;;;4164211;28;20049;-69
2022/04/05 05:44:55;;;;;;;0.00;0.00;;;8.70;69.60;;;;;;4149954;28;20046;-69
2022/04/05 05:47:19;;;;;;;0.00;0.00;;;8.70;69.60;;;;;;4136170;28;20141;-68
2022/04/05 05:49:43;;;;;;;0.00;0.00;;;8.60;69.60;;;;;;4163902;28;20475;-72
2022/04/05 05:52:06;;;;;;;0.00;0.00;;;8.70;69.80;;;;;;4149960;28;20084;-69
2022/04/05 05:54:30;;;;;;;0.00;0.00;;;8.60;70.10;;;;;;4136586;28;20034;-71
2022/04/05 05:56:52;;;;;;;0.00;0.00;;;8.60;70.20;;;;;;4149753;28;20049;-71
2022/04/05 05:59:14;;;;;;;0.00;0.00;;;8.70;70.10;;;;;;4149929;28;20045;-69
2022/04/05 06:01:41;;;;;;;0.00;0.00;;;8.70;69.90;;;;;;4163674;28;20049;-68
2022/04/05 06:04:03;;;;;;;0.00;0.00;;;8.70;70.00;;;;;;4163557;28;20048;-70
2022/04/05 06:06:33;;;;;;;0.00;0.00;;;8.70;70.10;;;;;;4154865;28;20045;-69
2022/04/05 06:08:55;;;;;;;0.00;0.00;;;8.70;70.40;;;;;;4151842;28;20049;-71
2022/04/05 06:11:22;;;;;;;0.00;0.00;;;8.70;70.70;;;;;;4152269;28;20045;-70
2022/04/05 06:13:46;;;;;;;0.00;0.00;;;8.80;70.70;;;;;;4166077;28;20084;-69
2022/04/05 06:16:09;;;;;;;0.00;0.00;;;8.80;70.60;;;;;;4152307;28;20076;-72
2022/04/05 06:18:31;;;;;;;0.00;0.00;;;8.80;70.90;;;;;;4151973;28;20061;-70
2022/04/05 06:20:53;;;;;;;0.00;0.00;;;8.90;70.90;;;;;;4165194;28;20049;-70
2022/04/05 06:23:17;;;;;;;0.00;0.00;;;8.90;70.70;;;;;;4151855;28;20056;-69
2022/04/05 06:25:40;;;;;;;0.00;0.00;;;8.90;70.50;;;;;;4151859;28;20054;-71
2022/04/05 06:28:10;;;;;;;0.00;0.00;;;8.80;69.00;;;;;;4151977;28;20045;-71
2022/04/05 06:30:33;;;;;;;0.00;0.00;;;8.80;68.20;;;;;;4151998;28;20061;-74
2022/04/05 06:33:14;;;;;;;0.00;0.00;;;8.80;67.80;;;;;;4165259;28;20061;-72
2022/04/05 06:35:47;;;;;;;0.00;0.00;;;8.70;67.90;;;;;;4150166;28;20045;-71
2022/04/05 06:38:10;;;;;;;0.00;0.00;;;8.70;67.90;;;;;;4149222;28;20125;-71
2022/04/05 06:40:32;;;;;;;0.00;0.00;;;8.70;67.70;;;;;;4151948;28;20515;-71
2022/04/05 06:42:56;;;;;;;0.00;0.00;;;8.70;67.80;;;;;;4151109;28;20491;-71
2022/04/05 06:45:19;;;;;;;0.00;0.00;;;8.70;67.80;;;;;;4165398;28;20051;-71
2022/04/05 06:47:47;;;;;;;0.00;0.00;;;8.80;67.80;;;;;;4139130;28;20117;-71
2022/04/05 06:50:11;;;;;;;0.00;0.00;;;8.70;67.90;;;;;;4165460;28;20064;-69
2022/04/05 06:52:40;;;;;;;0.00;0.00;;;8.70;68.30;;;;;;4151569;28;20042;-70
2022/04/05 06:55:05;;;;;;;0.00;0.00;;;8.80;68.70;;;;;;4151186;28;20388;-72
2022/04/05 06:57:30;;;;;;;0.00;0.00;;;8.80;69.00;;;;;;4138336;28;20084;-72
2022/04/05 06:59:54;;;;;;;0.00;0.00;;;8.80;68.90;;;;;;4165273;28;20057;-70
2022/04/05 07:02:16;;;;;;;0.00;0.00;;;8.90;69.00;;;;;;4145960;28;20144;-71
2022/04/05 07:04:38;;;;;;;0.00;0.00;;;8.80;68.90;;;;;;4132753;28;20050;-70
2022/04/05 07:07:07;;;;;;;0.00;0.00;;;8.90;68.30;;;;;;4132200;28;20058;-71
2022/04/05 07:09:31;;;;;;;0.00;0.00;;;8.90;68.30;;;;;;4119052;28;20076;-70
2022/04/05 07:11:59;;;;;;;0.00;0.00;;;8.90;68.90;;;;;;4095484;28;20043;-70
2022/04/05 07:14:21;;;;;;;0.00;0.00;;;8.90;69.20;;;;;;4129890;28;20084;-73
2022/04/05 07:16:43;;;;;;;0.00;0.00;;;8.90;69.60;;;;;;4121114;28;20119;-69
2022/04/05 07:19:05;;;;;;;0.00;0.00;;;9.00;70.20;;;;;;4135069;28;20048;-70
2022/04/05 07:21:27;;;;;;;0.00;0.00;;;9.00;70.20;;;;;;4134863;28;20046;-71
2022/04/05 07:23:58;;;;;;;0.00;0.00;;;9.00;70.50;;;;;;4134886;28;20481;-71
2022/04/05 07:26:21;;;;;;;0.00;0.00;;;9.00;70.90;;;;;;4134767;28;20088;-69
2022/04/05 07:28:46;;;;;;;0.00;0.00;;;8.90;71.30;;;;;;4121101;28;20442;-70
2022/04/05 07:31:11;;;;;;;0.00;0.00;;;8.90;71.50;;;;;;4148065;28;20064;-71
2022/04/05 07:33:35;;;;;;;0.00;0.00;;;8.80;71.60;;;;;;4148456;28;20515;-70
2022/04/05 07:35:57;;;;;;;0.00;0.00;;;8.70;72.00;;;;;;4132488;28;20070;-71
2022/04/05 07:38:19;;;;;;;0.00;0.00;;;8.70;72.20;;;;;;4142428;28;20097;-70
2022/04/05 07:40:48;;;;;;;0.00;0.00;;;8.70;72.20;;;;;;4131651;28;20061;-72
2022/04/05 07:43:14;;;;;;;0.00;0.00;;;8.80;72.20;;;;;;4133118;28;20053;-70
2022/04/05 07:45:36;;;;;;;0.00;0.00;;;8.80;72.30;;;;;;4134615;28;20442;-70
2022/04/05 07:48:00;;;;;;;0.00;0.00;;;8.90;72.10;;;;;;4134693;28;20069;-74
2022/04/05 07:50:23;;;;;;;0.00;0.00;;;9.00;71.90;;;;;;4134568;28;20082;-71
2022/04/05 07:52:45;;;;;;;0.00;0.00;;;9.00;72.00;;;;;;4120502;28;20050;-70
2022/04/05 07:55:10;;;;;;;0.00;0.00;;;9.00;72.20;;;;;;4134341;28;20081;-72
2022/04/05 07:57:34;;;;;;;0.00;0.00;;;9.10;72.30;;;;;;4158689;28;20041;-70
2022/04/05 07:59:59;;;;;;;0.00;0.00;;;9.10;72.00;;;;;;4158412;28;20434;-68
2022/04/05 08:02:21;;;;;;;0.00;0.00;;;9.20;71.70;;;;;;4164321;28;20092;-70
2022/04/05 08:04:57;;;;;;;0.00;0.00;;;9.20;71.90;;;;;;4163864;28;20443;-70
2022/04/05 08:07:19;;;;;;;0.00;0.00;;;9.20;71.30;;;;;;4137101;28;20465;-71
2022/04/05 08:09:41;;;;;;;0.00;0.00;;;9.20;71.40;;;;;;4156353;28;20732;-70
2022/04/05 08:12:04;;;;;;;0.00;0.00;;;9.10;71.70;;;;;;4150581;28;20539;-71
2022/04/05 08:14:29;;;;;;;0.00;0.00;;;9.20;72.20;;;;;;4150189;28;20040;-70
2022/04/05 08:16:51;;;;;;;0.00;0.00;;;9.10;72.50;;;;;;4165249;28;20045;-68
2022/04/05 08:19:18;;;;;;;0.00;0.00;;;9.20;72.60;;;;;;4152921;28;20120;-72
2022/04/05 08:21:49;;;;;;;0.00;0.00;;;9.30;72.40;;;;;;4151575;28;20053;-69
2022/04/05 08:24:13;;;;;;;0.00;0.00;;;9.40;72.40;;;;;;4149348;28;20049;-71
2022/04/05 08:26:38;;;;;;;0.00;0.00;;;9.50;73.10;;;;;;4162966;28;20108;-71
2022/04/05 08:29:00;;;;;;;0.00;0.00;;;9.60;72.30;;;;;;4162695;28;20136;-71
2022/04/05 08:31:25;;;;;;;0.00;0.00;;;9.60;71.90;;;;;;4150716;28;20128;-70
2022/04/05 08:33:51;;;;;;;0.00;0.00;;;9.70;72.00;;;;;;4163966;28;20107;-70
2022/04/05 08:36:15;;;;;;;0.00;0.00;;;9.70;72.00;;;;;;4163569;28;20063;-70
2022/04/05 08:38:37;;;;;;;0.00;0.00;;;9.70;72.00;;;;;;4150026;28;20069;-74
2022/04/05 08:41:10;;;;;;;0.00;0.00;;;9.70;72.30;;;;;;4163586;28;20376;-69
2022/04/05 08:43:38;;;;;;;0.00;0.00;;;9.70;72.40;;;;;;4163758;28;20593;-69
2022/04/05 08:46:06;;;;;;;0.00;0.00;;;9.90;72.20;;;;;;4137531;28;20054;-71
2022/04/05 08:48:31;;;;;;;0.00;0.00;;;9.80;71.30;;;;;;4163965;28;20049;-72
2022/04/05 08:50:56;;;;;;;0.00;0.00;;;9.70;71.60;;;;;;4163600;28;20499;-71
2022/04/05 08:53:23;;;;;;;0.00;0.00;;;9.70;71.90;;;;;;4163802;28;20087;-69
2022/04/05 08:55:45;;;;;;;0.00;0.00;;;9.80;72.00;;;;;;4163590;28;20448;-70
2022/04/05 08:58:10;;;;;;;0.00;0.00;;;9.80;72.10;;;;;;4149879;28;20058;-69
2022/04/05 09:00:35;;;;;;;0.00;0.00;;;9.70;71.00;;;;;;4163726;28;20137;-70
2022/04/05 09:03:01;;;;;;;0.00;0.00;;;9.60;71.20;;;;;;4149542;28;20128;-69
2022/04/05 09:05:43;;;;;;;0.00;0.00;;;9.60;71.30;;;;;;4136479;28;20038;-71
2022/04/05 09:08:20;;;;;;;0.00;0.00;;;9.80;71.80;;;;;;4149883;28;20050;-70
2022/04/05 09:10:48;;;;;;;0.00;0.00;;;9.90;71.20;;;;;;4136074;28;20093;-70
2022/04/05 09:13:11;;;;;;;0.00;0.00;;;10.00;70.60;;;;;;4163684;28;20080;-70
2022/04/05 09:15:37;;;;;;;0.00;0.00;;;10.00;70.20;;;;;;4149867;28;20049;-71
2022/04/05 09:17:59;;;;;;;0.00;0.00;;;10.00;70.00;;;;;;4163505;28;20061;-69
2022/04/05 09:20:28;;;;;;;0.00;0.00;;;10.10;69.60;;;;;;4163634;28;20042;-71
2022/04/05 09:22:54;;;;;;;0.00;0.00;;;10.20;69.70;;;;;;4149769;28;20338;-71
2022/04/05 09:25:20;;;;;;;0.00;0.00;;;10.20;69.70;;;;;;4149914;28;20054;-69
2022/04/05 09:27:51;;;;;;;0.00;0.00;;;10.30;69.60;;;;;;4177197;28;20052;-70
2022/04/05 09:30:19;;;;;;;0.00;0.00;;;10.40;69.70;;;;;;4177137;28;20456;-73
2022/04/05 09:32:48;;;;;;;0.00;0.00;;;10.10;69.40;;;;;;4136359;28;20053;-72
2022/04/05 09:35:16;;;;;;;0.00;0.00;;;10.10;69.80;;;;;;4149715;28;20420;-71
2022/04/05 09:37:39;;;;;;;0.00;0.00;;;10.20;69.30;;;;;;4167005;28;20482;-71
2022/04/05 09:40:32;;;;;;;0.00;0.00;;;10.40;69.20;;;;;;4152689;28;20152;-70
2022/04/05 09:43:21;;;;;;;0.00;0.00;;;10.50;68.70;;;;;;4166034;28;20053;-71
2022/04/05 09:45:52;;;;;;;0.00;0.00;;;10.40;68.10;;;;;;4166453;28;20046;-68
2022/04/05 09:48:21;;;;;;;0.00;0.00;;;10.20;68.30;;;;;;4180249;28;20052;-71
2022/04/05 09:51:12;;;;;;;0.00;0.00;;;10.10;69.10;;;;;;4152484;28;20132;-71
2022/04/05 09:53:43;;;;;;;0.00;0.00;;;9.80;69.60;;;;;;4166384;28;20054;-70
2022/04/05 09:56:07;;;;;;;0.00;0.00;;;9.70;70.50;;;;;;4138936;28;20045;-70
2022/04/05 09:58:30;;;;;;;0.00;0.00;;;9.70;70.50;;;;;;4165963;28;20123;-71
2022/04/05 10:01:08;;;;;;;0.00;0.00;;;9.70;70.80;;;;;;4151987;28;20067;-71
2022/04/05 10:03:34;;;;;;;0.00;0.00;;;9.70;71.00;;;;;;4152320;28;20568;-70
2022/04/05 10:05:56;;;;;;;0.00;0.00;;;9.60;71.20;;;;;;4165945;28;20498;-70
2022/04/05 10:08:18;;;;;;;0.00;0.00;;;9.50;71.30;;;;;;4166031;28;20049;-71
2022/04/05 10:10:40;;;;;;;0.00;0.00;;;9.50;71.90;;;;;;4165736;28;20053;-72
2022/04/05 10:13:03;;;;;;;0.00;0.00;;;9.40;72.10;;;;;;4166300;28;20065;-70
2022/04/05 10:15:27;;;;;;;0.00;0.00;;;9.50;72.30;;;;;;4166419;28;20072;-72
2022/04/05 10:17:51;;;;;;;0.00;0.00;;;9.60;72.20;;;;;;4139510;28;20183;-71
2022/04/05 10:20:17;;;;;;;0.00;0.00;;;9.40;72.60;;;;;;4152581;28;20079;-71
2022/04/05 10:22:43;;;;;;;0.00;0.00;;;9.50;73.20;;;;;;4152585;28;20438;-72
2022/04/05 10:25:05;;;;;;;0.00;0.00;;;9.50;73.20;;;;;;4152425;28;20037;-71
2022/04/05 10:27:33;;;;;;;0.00;0.00;;;9.60;72.90;;;;;;4166375;28;20045;-71
2022/04/05 10:30:08;;;;;;;0.00;0.00;;;9.70;72.20;;;;;;4152560;28;20125;-73
2022/04/05 10:32:56;;;;;;;0.00;0.00;;;9.50;72.50;;;;;;4166406;28;20132;-71
2022/04/05 10:35:23;;;;;;;0.00;0.00;;;9.50;73.10;;;;;;4179283;28;20479;-69
2022/04/05 10:37:45;;;;;;;0.00;0.00;;;9.40;72.70;;;;;;4138620;28;20112;-71
2022/04/05 10:40:10;;;;;;;0.00;0.00;;;9.50;72.80;;;;;;4166655;28;20038;-73
2022/04/05 10:42:46;;;;;;;0.00;0.00;;;9.50;72.90;;;;;;4149934;28;20038;-71
2022/04/05 10:45:10;;;;;;;0.00;0.00;;;9.60;72.50;;;;;;4136129;28;20096;-73
2022/04/05 10:47:32;;;;;;;0.00;0.00;;;9.50;72.40;;;;;;4135536;28;20046;-70
2022/04/05 10:50:18;;;;;;;0.00;0.00;;;9.50;72.80;;;;;;4140197;28;20080;-73
2022/04/05 10:52:49;;;;;;;0.00;0.00;;;9.70;73.00;;;;;;4151890;28;20045;-70
2022/04/05 10:55:20;;;;;;;0.00;0.00;;;9.70;72.60;;;;;;4138134;28;20452;-70
2022/04/05 10:57:43;;;;;;;0.00;0.00;;;9.60;72.60;;;;;;4165228;28;20040;-71
2022/04/05 11:00:31;;;;;;;0.00;0.00;;;9.50;73.10;;;;;;4151542;28;20042;-71
2022/04/05 11:02:52;;;;;;;0.00;0.00;;;9.60;73.10;;;;;;4164886;28;20114;-69
2022/04/05 11:05:15;;;;;;;0.00;0.00;;;9.70;73.20;;;;;;4151688;28;20069;-71
2022/04/05 11:07:52;;;;;;;0.00;0.00;;;9.70;73.10;;;;;;4151448;28;20064;-68
2022/04/05 11:10:17;;;;;;;0.00;0.00;;;9.70;72.90;;;;;;4164973;28;20041;-70
2022/04/05 11:12:45;;;;;;;0.00;0.00;;;9.70;72.90;;;;;;4151127;28;20053;-69
2022/04/05 11:15:10;;;;;;;0.00;0.00;;;9.80;72.50;;;;;;4150965;28;20048;-70
2022/04/05 11:17:33;;;;;;;0.00;0.00;;;9.70;72.10;;;;;;4151194;28;20045;-70
2022/04/05 11:19:59;;;;;;;0.00;0.00;;;9.50;72.70;;;;;;4151567;28;20073;-71
2022/04/05 11:22:21;;;;;;;0.00;0.00;;;9.60;72.90;;;;;;4164930;28;20472;-69
2022/04/05 11:24:52;;;;;;;0.00;0.00;;;9.70;72.30;;;;;;4164057;28;20136;-73
2022/04/05 11:27:48;;;;;;;0.00;0.00;;;9.70;72.20;;;;;;4150944;28;20048;-72
2022/04/05 11:30:44;;;;;;;0.00;0.00;;;9.70;72.30;;;;;;4153891;28;20095;-73
2022/04/05 11:33:09;;;;;;;0.00;0.00;;;9.80;72.50;;;;;;4137182;28;20101;-72
2022/04/05 11:35:46;;;;;;;0.00;0.00;;;10.00;72.50;;;;;;4137179;28;20081;-70
2022/04/05 11:38:27;;;;;;;0.00;0.00;;;10.00;72.00;;;;;;4151258;28;20057;-70
2022/04/05 11:41:03;;;;;;;0.00;0.00;;;10.00;72.10;;;;;;4164443;28;20087;-69
2022/04/05 11:43:29;;;;;;;0.00;0.00;;;9.90;72.20;;;;;;4137291;28;20527;-70
2022/04/05 11:45:53;;;;;;;0.00;0.00;;;9.90;72.10;;;;;;4137367;28;20104;-72
2022/04/05 11:48:16;;;;;;;0.00;0.00;;;10.00;72.00;;;;;;4164516;28;20053;-70
2022/04/05 11:50:38;;;;;;;0.00;0.00;;;9.90;72.10;;;;;;4164516;28;20049;-69
2022/04/05 11:53:19;;;;;;;0.00;0.00;;;9.70;72.30;;;;;;4163856;28;20052;-69
2022/04/05 11:56:05;;;;;;;0.00;0.00;;;9.90;72.70;;;;;;4150706;28;20046;-71
2022/04/05 11:58:34;;;;;;;0.00;0.00;;;9.90;72.60;;;;;;4164231;28;20088;-70
2022/04/05 12:01:00;;;;;;;0.00;0.00;;;9.90;72.80;;;;;;4150402;28;20097;-69
2022/04/05 12:03:26;;;;;;;0.00;0.00;;;9.90;72.60;;;;;;4136994;28;20038;-70
2022/04/05 12:05:49;;;;;;;0.00;0.00;;;9.70;73.50;;;;;;4150737;28;20112;-70
2022/04/05 12:08:15;;;;;;;0.00;0.00;;;9.60;73.70;;;;;;4164507;28;20051;-69
2022/04/05 12:10:42;;;;;;;0.00;0.00;;;9.70;73.80;;;;;;4150929;28;20127;-70
2022/04/05 12:13:12;;;;;;;0.00;0.00;;;9.80;73.80;;;;;;4150942;28;20435;-71
2022/04/05 12:15:36;;;;;;;0.00;0.00;;;9.90;73.50;;;;;;4150882;28;20041;-70
2022/04/05 12:18:27;;;;;;;0.00;0.00;;;9.90;73.30;;;;;;4151205;28;20108;-71
2022/04/05 12:21:04;;;;;;;0.00;0.00;;;10.00;73.10;;;;;;4163757;28;20126;-69
2022/04/05 12:23:31;;;;;;;0.00;0.00;;;10.00;73.10;;;;;;4150726;28;20111;-73
2022/04/05 12:26:02;;;;;;;0.00;0.00;;;9.90;73.40;;;;;;4150989;28;20377;-70
2022/04/05 12:28:27;;;;;;;0.00;0.00;;;10.00;73.70;;;;;;4164383;28;20124;-72
2022/04/05 12:30:51;;;;;;;0.00;0.00;;;10.20;73.60;;;;;;4163979;28;20478;-71
2022/04/05 12:33:22;;;;;;;0.00;0.00;;;10.30;73.00;;;;;;4150361;28;20100;-69
2022/04/05 12:35:45;;;;;;;0.00;0.00;;;10.30;72.90;;;;;;4150305;28;20038;-71
2022/04/05 12:38:09;;;;;;;0.00;0.00;;;10.10;73.20;;;;;;4164371;28;20050;-70
2022/04/05 12:40:39;;;;;;;0.00;0.00;;;10.20;73.60;;;;;;4150468;28;20050;-71
2022/04/05 12:43:16;;;;;;;0.00;0.00;;;10.30;74.30;;;;;;4149774;28;20487;-71
2022/04/05 12:45:41;;;;;;;0.00;0.00;;;10.10;73.10;;;;;;4150475;28;20057;-73
2022/04/05 12:48:17;;;;;;;0.00;0.00;;;10.00;74.30;;;;;;4163830;28;20053;-71
2022/04/05 12:50:44;;;;;;;0.00;0.00;;;10.00;74.50;;;;;;4163982;28;20065;-72
2022/04/05 12:53:10;;;;;;;0.00;0.00;;;9.90;74.80;;;;;;4149600;28;20116;-74
2022/04/05 12:55:34;;;;;;;0.00;0.00;;;10.10;74.30;;;;;;4177760;28;20110;-70